createdAt,value
2023-01-19T00:01:27.519Z,3.47
2023-01-19T00:03:54.921Z,3.67
2023-01-19T00:06:22.360Z,3.67
2023-01-19T00:08:52.838Z,3.03
2023-01-19T00:11:20.483Z,1.92
2023-01-19T00:13:50.745Z,3.00
2023-01-19T00:16:22.935Z,2.47
2023-01-19T00:18:52.586Z,2.83
2023-01-19T00:21:21.739Z,2.38
2023-01-19T00:23:51.203Z,3.20
2023-01-19T00:26:21.975Z,3.78
2023-01-19T00:28:50.337Z,2.38
2023-01-19T00:31:20.593Z,2.72
2023-01-19T00:33:49.266Z,1.92
2023-01-19T00:36:16.723Z,1.50
2023-01-19T00:38:44.130Z,2.38
2023-01-19T00:41:11.595Z,2.25
2023-01-19T00:43:38.995Z,2.17
2023-01-19T00:46:06.668Z,2.60
2023-01-19T00:48:34.100Z,2.67
2023-01-19T00:51:01.634Z,2.45
2023-01-19T00:53:32.472Z,2.37
2023-01-19T00:55:59.864Z,2.95
2023-01-19T00:58:27.470Z,2.80
2023-01-19T01:00:57.501Z,2.60
2023-01-19T01:03:28.016Z,2.22
2023-01-19T01:05:55.748Z,2.33
2023-01-19T01:08:23.267Z,2.60
2023-01-19T01:10:51.905Z,1.87
2023-01-19T01:15:53.431Z,1.85
2023-01-19T01:18:22.133Z,1.88
2023-01-19T01:20:49.688Z,2.70
2023-01-19T01:23:23.095Z,1.53
2023-01-19T01:25:50.688Z,2.40
2023-01-19T01:28:18.153Z,2.20
2023-01-19T01:30:45.510Z,2.38
2023-01-19T01:33:13.367Z,4.50
2023-01-19T01:35:40.891Z,2.85
2023-01-19T01:38:09.404Z,1.80
2023-01-19T01:40:40.451Z,2.30
2023-01-19T01:43:17.593Z,1.60
2023-01-19T01:45:45.292Z,1.73
2023-01-19T01:48:22.420Z,1.70
2023-01-19T01:51:27.017Z,1.55
2023-01-19T01:54:11.888Z,2.15
2023-01-19T01:56:44.196Z,1.60
2023-01-19T01:59:26.096Z,1.77
2023-01-19T02:02:18.052Z,2.00
2023-01-19T02:05:04.150Z,2.90
2023-01-19T02:08:14.671Z,2.10
2023-01-19T02:11:03.220Z,2.60
2023-01-19T02:13:33.423Z,1.83
2023-01-19T02:16:08.466Z,1.90
2023-01-19T02:18:37.481Z,2.40
2023-01-19T02:21:30.508Z,2.90
2023-01-19T02:24:01.647Z,2.78
2023-01-19T02:26:44.390Z,2.17
2023-01-19T02:29:17.663Z,2.65
2023-01-19T02:31:45.889Z,2.90
2023-01-19T02:34:17.866Z,2.35
2023-01-19T02:36:53.442Z,2.65
2023-01-19T02:39:31.225Z,2.75
2023-01-19T02:42:09.776Z,3.05
2023-01-19T02:44:39.533Z,2.15
2023-01-19T02:47:07.503Z,1.77
2023-01-19T02:49:34.898Z,1.38
2023-01-19T02:52:02.861Z,1.90
2023-01-19T02:55:09.522Z,1.80
2023-01-19T03:48:54.340Z,1.67
2023-01-19T03:51:22.414Z,0.75
2023-01-19T03:53:50.121Z,1.20
2023-01-19T03:56:22.042Z,1.27
2023-01-19T03:58:49.906Z,1.08
2023-01-19T04:01:22.714Z,2.17
2023-01-19T04:03:51.889Z,2.17
2023-01-19T04:06:21.132Z,1.70
2023-01-19T04:08:52.042Z,1.05
2023-01-19T04:11:19.563Z,1.55
2023-01-19T04:13:47.024Z,1.15
2023-01-19T04:16:14.455Z,1.30
2023-01-19T04:18:42.380Z,1.52
2023-01-19T04:21:09.783Z,1.88
2023-01-19T04:23:37.190Z,1.80
2023-01-19T04:26:07.866Z,1.70
2023-01-19T04:28:37.234Z,1.27
2023-01-19T04:31:07.017Z,4.35
2023-01-19T04:33:35.243Z,1.40
2023-01-19T04:36:04.127Z,1.50
2023-01-19T04:38:31.551Z,1.35
2023-01-19T04:40:58.936Z,1.92
2023-01-19T04:43:26.356Z,1.05
2023-01-19T04:45:53.749Z,1.40
2023-01-19T04:48:22.020Z,1.50
2023-01-19T04:50:52.616Z,1.42
2023-01-19T04:53:19.947Z,1.40
2023-01-19T04:55:47.750Z,1.05
2023-01-19T04:58:15.213Z,1.00
2023-01-19T05:00:43.505Z,1.10
2023-01-19T05:03:10.866Z,0.88
2023-01-19T05:05:38.400Z,1.60
2023-01-19T05:08:06.095Z,0.87
2023-01-19T05:10:33.532Z,1.60
2023-01-19T05:13:01.122Z,2.10
2023-01-19T05:15:29.633Z,2.47
2023-01-19T05:17:58.113Z,1.80
2023-01-19T05:22:53.386Z,1.30
2023-01-19T05:25:20.783Z,2.03
2023-01-19T05:27:48.331Z,1.50
2023-01-19T05:30:16.653Z,1.10
2023-01-19T05:32:44.307Z,16.95
2023-01-19T05:35:13.476Z,2.00
2023-01-19T05:37:41.026Z,1.92
2023-01-19T05:40:09.550Z,2.25
2023-01-19T05:45:05.573Z,1.63
2023-01-19T05:50:00.041Z,1.90
2023-01-19T05:52:27.420Z,4.68
2023-01-19T05:54:55.243Z,2.08
2023-01-19T05:57:23.320Z,5.47
2023-01-19T05:59:50.637Z,2.25
2023-01-19T06:02:18.178Z,3.80
2023-01-19T06:04:45.545Z,2.65
2023-01-19T06:07:12.905Z,4.78
2023-01-19T06:09:40.302Z,4.30
2023-01-19T06:12:07.711Z,9.93
2023-01-19T06:14:36.968Z,6.65
2023-01-19T06:17:06.115Z,4.78
2023-01-19T06:19:34.750Z,3.13
2023-01-19T06:22:02.879Z,3.10
2023-01-19T06:24:30.439Z,8.77
2023-01-19T06:26:57.771Z,10.65
2023-01-19T06:29:25.498Z,7.13
2023-01-19T06:31:53.637Z,19.33
2023-01-19T06:34:21.576Z,4.28
2023-01-19T06:36:48.925Z,5.68
2023-01-19T06:39:16.272Z,3.42
2023-01-19T06:41:43.641Z,4.53
2023-01-19T06:44:10.953Z,3.92
2023-01-19T06:46:38.376Z,3.85
2023-01-19T06:49:05.829Z,4.60
2023-01-19T06:51:33.345Z,2.03
2023-01-19T06:54:00.758Z,2.00
2023-01-19T06:56:28.119Z,1.58
2023-01-19T06:58:56.119Z,3.35
2023-01-19T07:01:23.516Z,3.65
2023-01-19T07:03:51.225Z,3.85
2023-01-19T07:06:18.626Z,6.27
2023-01-19T07:08:46.032Z,5.15
2023-01-19T07:11:25.563Z,2.95
2023-01-19T07:13:59.803Z,3.42
2023-01-19T07:16:27.516Z,4.53
2023-01-19T07:18:55.399Z,5.30
2023-01-19T07:21:23.270Z,5.05
2023-01-19T07:23:53.967Z,5.22
2023-01-19T07:26:24.916Z,4.43
2023-01-19T07:28:52.699Z,4.70
2023-01-19T07:31:20.810Z,3.10
2023-01-19T07:33:48.189Z,3.28
2023-01-19T07:36:15.621Z,2.67
2023-01-19T07:38:43.039Z,3.20
2023-01-19T07:41:10.926Z,3.30
2023-01-19T07:43:38.317Z,4.63
2023-01-19T07:46:07.822Z,3.03
2023-01-19T07:48:35.411Z,5.22
2023-01-19T07:51:05.799Z,3.17
2023-01-19T07:53:33.382Z,3.33
2023-01-19T07:56:00.728Z,3.58
2023-01-19T07:58:28.285Z,5.43
2023-01-19T08:00:55.875Z,5.50
2023-01-19T08:03:23.319Z,4.67
2023-01-19T08:05:53.091Z,7.80
2023-01-19T08:08:20.779Z,5.43
2023-01-19T08:10:52.662Z,4.57
2023-01-19T08:13:20.019Z,4.68
2023-01-19T08:15:52.960Z,2.92
2023-01-19T08:18:21.359Z,3.35
2023-01-19T08:20:48.910Z,4.60
2023-01-19T08:23:18.069Z,2.60
2023-01-19T08:25:46.178Z,2.33
2023-01-19T08:28:16.803Z,3.95
2023-01-19T08:30:45.061Z,4.28
2023-01-19T08:33:13.865Z,2.97
2023-01-19T08:35:47.274Z,3.85
2023-01-19T08:38:15.458Z,4.78
2023-01-19T08:40:43.217Z,5.10
2023-01-19T08:43:16.675Z,5.53
2023-01-19T08:45:50.261Z,5.43
2023-01-19T08:48:24.772Z,3.70
2023-01-19T08:50:53.440Z,2.72
2023-01-19T08:53:23.621Z,4.88
2023-01-19T08:56:03.515Z,3.70
2023-01-19T08:58:30.830Z,5.20
2023-01-19T09:01:01.954Z,6.63
2023-01-19T09:03:30.364Z,6.82
2023-01-19T09:05:57.777Z,4.37
2023-01-19T09:08:25.119Z,5.83
2023-01-19T09:10:52.594Z,4.75
2023-01-19T09:13:20.636Z,4.57
2023-01-19T09:15:48.399Z,7.95
2023-01-19T09:18:20.247Z,5.20
2023-01-19T09:20:50.228Z,4.00
2023-01-19T09:23:20.469Z,4.57
2023-01-19T09:25:48.895Z,6.78
2023-01-19T09:28:17.762Z,5.68
2023-01-19T09:30:45.513Z,6.43
2023-01-19T09:33:16.844Z,6.35
2023-01-19T09:35:47.098Z,5.65
2023-01-19T09:38:16.831Z,7.75
2023-01-19T09:40:53.228Z,4.88
2023-01-19T09:43:35.302Z,5.03
2023-01-19T09:46:18.844Z,10.02
2023-01-19T09:48:52.692Z,5.85
2023-01-19T09:51:27.789Z,9.30
2023-01-19T09:54:19.922Z,5.55
2023-01-19T09:56:52.429Z,2.80
2023-01-19T09:59:30.873Z,3.45
2023-01-19T10:05:12.411Z,3.88
2023-01-19T10:08:21.461Z,10.02
2023-01-19T10:10:54.489Z,4.05
2023-01-19T10:13:48.825Z,4.80
2023-01-19T10:16:47.143Z,3.42
2023-01-19T10:19:33.728Z,7.55
2023-01-19T10:22:22.204Z,4.82
2023-01-19T10:24:56.567Z,3.25
2023-01-19T10:27:30.248Z,3.00
2023-01-19T10:29:59.556Z,4.88
2023-01-19T10:32:33.490Z,2.60
2023-01-19T10:35:01.060Z,1.75
2023-01-19T10:37:34.334Z,1.65
2023-01-19T10:40:29.072Z,3.75
2023-01-19T10:42:57.585Z,4.35
2023-01-19T10:45:30.896Z,4.05
2023-01-19T10:48:06.419Z,1.70
2023-01-19T10:50:41.343Z,3.85
2023-01-19T10:53:22.201Z,5.68
2023-01-19T10:56:23.837Z,2.90
2023-01-19T10:58:51.620Z,2.38
2023-01-19T11:01:26.480Z,2.67
2023-01-19T11:04:00.046Z,2.75
2023-01-19T11:06:30.730Z,3.50
2023-01-19T11:09:30.262Z,3.78
2023-01-19T11:11:57.672Z,2.78
2023-01-19T11:14:29.319Z,4.60
2023-01-19T11:16:58.843Z,4.80
2023-01-19T11:19:31.326Z,5.57
2023-01-19T11:22:33.342Z,2.10
2023-01-19T11:25:04.738Z,2.92
2023-01-19T11:27:37.506Z,2.20
2023-01-19T11:30:25.764Z,4.38
2023-01-19T11:32:54.468Z,6.90
2023-01-19T11:35:39.405Z,3.25
2023-01-19T11:38:12.856Z,3.33
2023-01-19T11:40:55.119Z,2.90
2023-01-19T11:43:43.391Z,2.90
2023-01-19T11:46:17.577Z,2.15
2023-01-19T11:49:13.909Z,4.90
2023-01-19T11:52:13.255Z,3.38
2023-01-19T11:55:01.527Z,3.88
2023-01-19T11:57:29.006Z,4.20
2023-01-19T11:59:58.692Z,2.90
2023-01-19T12:02:37.250Z,4.75
2023-01-19T12:05:14.730Z,4.50
2023-01-19T12:07:45.385Z,4.55
2023-01-19T12:10:38.132Z,1.42
2023-01-19T12:13:05.473Z,2.00
2023-01-19T12:15:42.548Z,2.00
2023-01-19T12:18:32.334Z,1.80
2023-01-19T12:21:01.334Z,2.00
2023-01-19T12:24:03.800Z,2.00
2023-01-19T12:26:42.102Z,1.55
2023-01-19T12:31:43.367Z,1.90
2023-01-19T12:34:42.295Z,1.40
2023-01-19T12:37:30.849Z,1.15
2023-01-19T12:40:14.151Z,2.00
2023-01-19T12:42:47.651Z,1.83
2023-01-19T12:45:20.833Z,1.83
2023-01-19T12:47:53.694Z,1.52
2023-01-19T12:50:25.805Z,1.35
2023-01-19T12:52:58.568Z,1.60
2023-01-19T12:55:33.596Z,3.13
2023-01-19T12:58:10.635Z,3.50
2023-01-19T13:00:42.850Z,5.50
2023-01-19T13:03:19.226Z,4.05
2023-01-19T13:05:56.805Z,5.55
2023-01-19T13:09:00.928Z,8.73
2023-01-19T13:11:33.361Z,7.00
2023-01-19T13:14:01.803Z,8.80
2023-01-19T13:16:29.225Z,7.60
2023-01-19T13:19:01.682Z,5.18
2023-01-19T13:21:58.249Z,4.75
2023-01-19T13:24:45.697Z,8.88
2023-01-19T13:27:13.495Z,9.98
2023-01-19T13:29:43.869Z,3.83
2023-01-19T13:32:18.831Z,2.38
2023-01-19T13:34:54.599Z,7.60
2023-01-19T13:37:27.710Z,5.22
2023-01-19T13:39:55.867Z,8.48
2023-01-19T13:42:34.141Z,8.27
2023-01-19T13:45:16.305Z,9.63
2023-01-19T13:47:48.782Z,4.10
2023-01-19T13:50:24.396Z,4.03
2023-01-19T13:52:54.063Z,8.73
2023-01-19T13:55:23.655Z,8.73
2023-01-19T13:57:52.219Z,13.05
2023-01-19T14:03:23.818Z,9.32
2023-01-19T14:05:55.316Z,5.30
2023-01-19T14:08:25.599Z,4.15
2023-01-19T14:10:56.477Z,2.30
2023-01-19T14:13:34.399Z,2.50
2023-01-19T14:16:13.710Z,2.40
2023-01-19T14:18:41.235Z,2.92
2023-01-19T14:21:14.494Z,4.80
2023-01-19T14:23:55.138Z,3.85
2023-01-19T14:26:37.547Z,19.67
2023-01-19T14:29:28.352Z,10.73
2023-01-19T14:32:01.449Z,8.10
2023-01-19T14:34:45.231Z,4.20
2023-01-19T14:37:28.715Z,5.97
2023-01-19T14:40:08.914Z,18.40
2023-01-19T14:42:42.368Z,17.95
2023-01-19T14:45:29.028Z,25.70
2023-01-19T14:48:18.162Z,15.07
2023-01-19T14:51:02.047Z,21.13
2023-01-19T14:53:37.518Z,8.82
2023-01-19T14:56:06.856Z,21.15
2023-01-19T14:58:35.909Z,8.75
2023-01-19T15:01:04.653Z,8.63
2023-01-19T15:03:43.982Z,11.30
2023-01-19T15:06:16.701Z,10.65
2023-01-19T15:08:45.495Z,6.32
2023-01-19T15:11:31.568Z,8.13
2023-01-19T15:14:00.361Z,7.22
2023-01-19T15:16:31.484Z,5.40
2023-01-19T15:18:58.860Z,4.95
2023-01-19T15:21:26.934Z,5.15
2023-01-19T15:23:55.457Z,5.57
2023-01-19T15:26:26.300Z,5.55
2023-01-19T15:28:55.768Z,5.88
2023-01-19T15:31:26.055Z,5.90
2023-01-19T15:33:54.106Z,6.55
2023-01-19T15:36:24.246Z,6.20
2023-01-19T15:38:51.630Z,7.00
2023-01-19T15:41:30.078Z,7.13
2023-01-19T15:43:58.472Z,7.60
2023-01-19T15:46:26.321Z,7.75
2023-01-19T15:48:54.387Z,11.45
2023-01-19T15:51:27.800Z,14.13
2023-01-19T15:53:55.702Z,21.80
2023-01-19T15:56:27.995Z,37.45
2023-01-19T15:58:57.974Z,63.08
2023-01-19T16:01:35.156Z,35.33
2023-01-19T16:04:06.838Z,13.90
2023-01-19T16:06:34.544Z,17.90
2023-01-19T16:09:03.788Z,18.10
2023-01-19T16:11:34.314Z,26.73
2023-01-19T16:14:02.024Z,20.25
2023-01-19T16:16:29.935Z,19.30
2023-01-19T16:18:58.004Z,17.65
2023-01-19T16:21:26.095Z,17.67
2023-01-19T16:23:53.692Z,17.75
2023-01-19T16:26:34.919Z,15.00
2023-01-19T16:29:09.763Z,8.02
2023-01-19T16:31:39.224Z,12.80
2023-01-19T16:34:07.788Z,17.08
2023-01-19T16:39:12.128Z,14.93
2023-01-19T16:41:40.250Z,12.73
2023-01-19T16:44:09.502Z,13.48
2023-01-19T16:46:40.703Z,12.50
2023-01-19T16:49:16.864Z,13.02
2023-01-19T16:51:44.809Z,14.45
2023-01-19T16:54:19.589Z,14.50
2023-01-19T16:56:48.081Z,12.63
2023-01-19T16:59:17.063Z,12.45
2023-01-19T17:01:45.999Z,20.63
2023-01-19T17:04:14.439Z,19.13
2023-01-19T17:06:41.965Z,16.38
2023-01-19T17:09:10.057Z,12.48
2023-01-19T17:11:40.247Z,14.32
2023-01-19T17:14:15.498Z,14.68
2023-01-19T17:16:44.284Z,12.05
2023-01-19T17:19:16.768Z,12.40
2023-01-19T17:21:49.742Z,12.05
2023-01-19T17:24:17.702Z,12.38
2023-01-19T17:26:45.970Z,12.45
2023-01-19T17:29:13.336Z,17.33
2023-01-19T17:31:41.252Z,17.55
2023-01-19T17:34:09.842Z,11.57
2023-01-19T17:39:09.326Z,9.88
2023-01-19T17:41:36.929Z,16.08
2023-01-19T17:44:06.312Z,12.60
2023-01-19T17:46:37.403Z,14.75
2023-01-19T17:49:07.390Z,11.38
2023-01-19T17:51:35.848Z,9.18
2023-01-19T17:54:04.167Z,16.40
2023-01-19T17:56:36.693Z,12.60
2023-01-19T17:59:06.608Z,11.43
2023-01-19T18:01:38.209Z,15.60
2023-01-19T18:04:07.712Z,17.58
2023-01-19T18:06:35.332Z,22.20
2023-01-19T18:09:04.938Z,19.05
2023-01-19T18:11:32.439Z,9.50
2023-01-19T18:14:02.857Z,15.02
2023-01-19T18:16:30.872Z,8.32
2023-01-19T18:18:58.397Z,6.70
2023-01-19T18:21:28.220Z,7.47
2023-01-19T18:24:02.275Z,8.65
2023-01-19T18:26:31.286Z,7.45
2023-01-19T18:28:58.765Z,13.13
2023-01-19T18:31:27.800Z,17.52
2023-01-19T18:33:55.587Z,13.90
2023-01-19T18:36:23.267Z,10.75
2023-01-19T18:38:51.402Z,12.43
2023-01-19T18:41:21.604Z,10.30
2023-01-19T18:43:49.769Z,12.02
2023-01-19T18:46:17.313Z,12.88
2023-01-19T18:48:44.867Z,13.70
2023-01-19T18:51:15.845Z,16.40
2023-01-19T18:53:45.012Z,11.07
2023-01-19T18:56:15.490Z,13.82
2023-01-19T18:58:44.385Z,9.52
2023-01-19T19:01:32.512Z,8.40
2023-01-19T19:04:01.240Z,11.90
2023-01-19T19:06:29.171Z,10.73
2023-01-19T19:08:59.342Z,7.90
2023-01-19T19:11:28.185Z,7.38
2023-01-19T19:14:00.196Z,7.13
2023-01-19T19:16:28.930Z,7.13
2023-01-19T19:18:56.476Z,6.43
2023-01-19T19:21:25.468Z,6.03
2023-01-19T19:23:58.699Z,7.47
2023-01-19T19:26:28.284Z,10.30
2023-01-19T19:28:55.939Z,6.05
2023-01-19T19:31:26.100Z,6.50
2023-01-19T19:33:55.602Z,5.47
2023-01-19T19:36:25.125Z,7.05
2023-01-19T19:38:52.690Z,6.53
2023-01-19T19:41:27.072Z,8.95
2023-01-19T19:43:55.717Z,7.95
2023-01-19T19:48:53.227Z,6.60
2023-01-19T19:51:27.176Z,5.70
2023-01-19T19:53:58.973Z,6.03
2023-01-19T19:56:31.608Z,5.45
2023-01-19T19:58:59.726Z,4.68
2023-01-19T20:01:32.861Z,6.72
2023-01-19T20:04:10.849Z,6.18
2023-01-19T20:06:44.741Z,6.63
2023-01-19T20:09:14.056Z,6.25
2023-01-19T20:11:44.077Z,7.78
2023-01-19T20:14:14.367Z,7.53
2023-01-19T20:16:42.242Z,6.70
2023-01-19T20:19:10.239Z,6.93
2023-01-19T20:21:41.791Z,6.47
2023-01-19T20:24:15.605Z,6.30
2023-01-19T20:26:48.186Z,7.68
2023-01-19T20:29:16.064Z,7.32
2023-01-19T20:31:51.504Z,8.27
2023-01-19T20:34:22.301Z,8.20
2023-01-19T20:36:51.602Z,8.30
2023-01-19T20:39:21.441Z,10.68
2023-01-19T20:41:51.219Z,9.85
2023-01-19T20:44:23.830Z,11.20
2023-01-19T20:46:52.234Z,13.23
2023-01-19T20:49:19.767Z,13.88
2023-01-19T20:51:47.423Z,13.35
2023-01-19T20:54:18.222Z,10.83
2023-01-19T20:56:45.666Z,11.73
2023-01-19T20:59:13.797Z,10.70
2023-01-19T21:01:42.503Z,9.90
2023-01-19T21:04:10.979Z,10.98
2023-01-19T21:06:39.118Z,9.32
2023-01-19T21:09:08.687Z,9.20
2023-01-19T21:11:38.895Z,9.80
2023-01-19T21:14:07.735Z,10.45
2023-01-19T21:16:36.726Z,11.30
2023-01-19T21:19:05.317Z,12.15
2023-01-19T21:24:02.425Z,10.43
2023-01-19T21:26:31.462Z,12.60
2023-01-19T21:29:00.776Z,11.20
2023-01-19T21:31:29.033Z,12.27
2023-01-19T21:33:59.509Z,13.15
2023-01-19T21:36:27.606Z,12.13
2023-01-19T21:39:00.745Z,12.18
2023-01-19T21:41:30.298Z,13.35
2023-01-19T21:44:00.082Z,12.68
2023-01-19T21:46:33.412Z,14.35
2023-01-19T21:49:07.338Z,14.40
2023-01-19T21:51:37.187Z,14.40
2023-01-19T21:54:06.579Z,13.70
2023-01-19T21:56:35.557Z,15.60
2023-01-19T21:59:03.490Z,14.40
2023-01-19T22:01:34.885Z,14.75
2023-01-19T22:04:02.544Z,16.27
2023-01-19T22:06:30.071Z,14.02
2023-01-19T22:08:58.416Z,12.73
2023-01-19T22:11:25.882Z,15.70
2023-01-19T22:13:54.556Z,13.32
2023-01-19T22:16:23.561Z,14.25
2023-01-19T22:18:59.488Z,13.23
2023-01-19T22:21:35.959Z,14.45
2023-01-19T22:24:05.284Z,14.65
2023-01-19T22:26:34.499Z,12.25
2023-01-19T22:29:04.522Z,14.05
2023-01-19T22:31:32.121Z,13.25
2023-01-19T22:33:59.524Z,13.30
2023-01-19T22:36:31.000Z,11.00
2023-01-19T22:39:05.293Z,10.80
2023-01-19T22:41:43.440Z,14.55
2023-01-19T22:44:23.654Z,18.95
2023-01-19T22:46:55.840Z,11.23
2023-01-19T22:49:23.392Z,11.95
2023-01-19T22:51:50.769Z,12.60
2023-01-19T22:54:18.144Z,15.13
2023-01-19T22:56:45.834Z,19.33
2023-01-19T22:59:13.307Z,12.30
2023-01-19T23:01:43.710Z,11.75
2023-01-19T23:04:15.559Z,10.80
2023-01-19T23:06:46.864Z,10.23
2023-01-19T23:09:15.046Z,11.63
2023-01-19T23:11:50.164Z,11.68
2023-01-19T23:14:21.920Z,10.25
2023-01-19T23:16:49.465Z,10.48
2023-01-19T23:19:18.285Z,10.35
2023-01-19T23:21:46.219Z,10.88
2023-01-19T23:24:13.614Z,13.35
2023-01-19T23:26:41.007Z,14.23
2023-01-19T23:29:14.320Z,12.85
2023-01-19T23:31:48.322Z,11.88
2023-01-19T23:34:16.273Z,12.70
2023-01-19T23:36:44.554Z,12.68
2023-01-19T23:39:19.172Z,11.85
2023-01-19T23:41:47.471Z,10.75
2023-01-19T23:44:15.377Z,10.82
2023-01-19T23:46:43.953Z,11.23
2023-01-19T23:54:08.365Z,9.55
2023-01-19T23:56:38.351Z,9.57
2023-01-19T23:59:12.698Z,10.55
